sensor_id;sensor_type;location;lat;lon;timestamp;P1;durP1;ratioP1;P2;durP2;ratioP2
66927;SDS011;59882;45.624;11.698;2023-12-20T00:02:17;76.97;;;50.67;;
66927;SDS011;59882;45.624;11.698;2023-12-20T00:04:42;74.32;;;49.55;;
66927;SDS011;59882;45.624;11.698;2023-12-20T00:07:08;80.63;;;52.37;;
66927;SDS011;59882;45.624;11.698;2023-12-20T00:09:33;81.38;;;52.17;;
66927;SDS011;59882;45.624;11.698;2023-12-20T00:11:59;79.70;;;51.83;;
66927;SDS011;59882;45.624;11.698;2023-12-20T00:14:25;79.67;;;52.10;;
66927;SDS011;59882;45.624;11.698;2023-12-20T00:16:50;83.93;;;53.60;;
66927;SDS011;59882;45.624;11.698;2023-12-20T00:19:16;80.77;;;52.73;;
66927;SDS011;59882;45.624;11.698;2023-12-20T00:21:42;78.55;;;52.25;;
66927;SDS011;59882;45.624;11.698;2023-12-20T00:24:07;77.13;;;49.73;;
66927;SDS011;59882;45.624;11.698;2023-12-20T00:26:33;81.13;;;51.28;;
66927;SDS011;59882;45.624;11.698;2023-12-20T00:28:59;75.97;;;49.70;;
66927;SDS011;59882;45.624;11.698;2023-12-20T00:31:25;81.85;;;53.25;;
66927;SDS011;59882;45.624;11.698;2023-12-20T00:33:50;73.73;;;48.43;;
66927;SDS011;59882;45.624;11.698;2023-12-20T00:36:16;71.10;;;45.92;;
66927;SDS011;59882;45.624;11.698;2023-12-20T00:38:41;69.70;;;45.63;;
66927;SDS011;59882;45.624;11.698;2023-12-20T00:41:07;69.30;;;47.95;;
66927;SDS011;59882;45.624;11.698;2023-12-20T00:43:33;71.47;;;46.37;;
66927;SDS011;59882;45.624;11.698;2023-12-20T00:45:58;67.17;;;45.70;;
66927;SDS011;59882;45.624;11.698;2023-12-20T00:48:25;75.13;;;46.15;;
66927;SDS011;59882;45.624;11.698;2023-12-20T00:50:52;70.47;;;47.95;;
66927;SDS011;59882;45.624;11.698;2023-12-20T00:53:18;72.30;;;45.47;;
66927;SDS011;59882;45.624;11.698;2023-12-20T00:55:43;66.80;;;45.27;;
66927;SDS011;59882;45.624;11.698;2023-12-20T00:58:10;71.80;;;46.72;;
66927;SDS011;59882;45.624;11.698;2023-12-20T01:00:35;70.45;;;46.17;;
66927;SDS011;59882;45.624;11.698;2023-12-20T01:03:01;67.67;;;42.23;;
66927;SDS011;59882;45.624;11.698;2023-12-20T01:05:27;69.03;;;45.13;;
66927;SDS011;59882;45.624;11.698;2023-12-20T01:07:52;70.18;;;45.47;;
66927;SDS011;59882;45.624;11.698;2023-12-20T01:10:18;70.00;;;45.37;;
66927;SDS011;59882;45.624;11.698;2023-12-20T01:12:43;62.38;;;43.13;;
66927;SDS011;59882;45.624;11.698;2023-12-20T01:15:09;66.17;;;44.53;;
66927;SDS011;59882;45.624;11.698;2023-12-20T01:17:35;69.25;;;45.25;;
66927;SDS011;59882;45.624;11.698;2023-12-20T01:20:01;64.03;;;43.43;;
66927;SDS011;59882;45.624;11.698;2023-12-20T01:22:26;64.40;;;41.70;;
66927;SDS011;59882;45.624;11.698;2023-12-20T01:24:52;67.53;;;44.80;;
66927;SDS011;59882;45.624;11.698;2023-12-20T01:27:18;62.90;;;43.80;;
66927;SDS011;59882;45.624;11.698;2023-12-20T01:29:43;65.33;;;42.40;;
66927;SDS011;59882;45.624;11.698;2023-12-20T01:32:09;66.13;;;43.60;;
66927;SDS011;59882;45.624;11.698;2023-12-20T01:34:35;65.97;;;43.23;;
66927;SDS011;59882;45.624;11.698;2023-12-20T01:37:01;63.58;;;42.55;;
66927;SDS011;59882;45.624;11.698;2023-12-20T01:39:27;68.22;;;42.92;;
66927;SDS011;59882;45.624;11.698;2023-12-20T01:41:53;64.97;;;41.13;;
66927;SDS011;59882;45.624;11.698;2023-12-20T01:44:18;59.23;;;39.43;;
66927;SDS011;59882;45.624;11.698;2023-12-20T01:46:44;66.68;;;42.53;;
66927;SDS011;59882;45.624;11.698;2023-12-20T01:49:10;66.88;;;42.13;;
66927;SDS011;59882;45.624;11.698;2023-12-20T01:51:36;59.73;;;40.50;;
66927;SDS011;59882;45.624;11.698;2023-12-20T01:54:02;64.70;;;41.75;;
66927;SDS011;59882;45.624;11.698;2023-12-20T01:56:29;63.05;;;41.25;;
66927;SDS011;59882;45.624;11.698;2023-12-20T01:58:56;64.32;;;41.38;;
66927;SDS011;59882;45.624;11.698;2023-12-20T02:01:23;61.63;;;40.80;;
66927;SDS011;59882;45.624;11.698;2023-12-20T02:03:49;61.35;;;40.90;;
66927;SDS011;59882;45.624;11.698;2023-12-20T02:06:15;59.92;;;40.60;;
66927;SDS011;59882;45.624;11.698;2023-12-20T02:08:43;64.05;;;40.35;;
66927;SDS011;59882;45.624;11.698;2023-12-20T02:11:08;59.23;;;40.37;;
66927;SDS011;59882;45.624;11.698;2023-12-20T02:16:21;65.18;;;40.75;;
66927;SDS011;59882;45.624;11.698;2023-12-20T02:18:47;58.90;;;38.45;;
66927;SDS011;59882;45.624;11.698;2023-12-20T02:21:13;54.73;;;36.33;;
66927;SDS011;59882;45.624;11.698;2023-12-20T02:23:39;59.15;;;37.80;;
66927;SDS011;59882;45.624;11.698;2023-12-20T02:26:05;61.70;;;38.63;;
66927;SDS011;59882;45.624;11.698;2023-12-20T02:28:31;61.13;;;38.78;;
66927;SDS011;59882;45.624;11.698;2023-12-20T02:30:57;56.95;;;39.60;;
66927;SDS011;59882;45.624;11.698;2023-12-20T02:33:23;57.23;;;38.10;;
66927;SDS011;59882;45.624;11.698;2023-12-20T02:35:48;55.30;;;34.92;;
66927;SDS011;59882;45.624;11.698;2023-12-20T02:38:14;59.33;;;39.13;;
66927;SDS011;59882;45.624;11.698;2023-12-20T02:40:39;57.42;;;36.17;;
66927;SDS011;59882;45.624;11.698;2023-12-20T02:43:05;55.17;;;37.10;;
66927;SDS011;59882;45.624;11.698;2023-12-20T02:45:31;55.20;;;36.10;;
66927;SDS011;59882;45.624;11.698;2023-12-20T02:47:56;59.03;;;36.83;;
66927;SDS011;59882;45.624;11.698;2023-12-20T02:50:22;61.10;;;36.60;;
66927;SDS011;59882;45.624;11.698;2023-12-20T02:52:47;55.10;;;36.38;;
66927;SDS011;59882;45.624;11.698;2023-12-20T02:55:13;56.87;;;36.83;;
66927;SDS011;59882;45.624;11.698;2023-12-20T02:57:39;53.40;;;35.20;;
66927;SDS011;59882;45.624;11.698;2023-12-20T03:00:07;57.47;;;35.33;;
66927;SDS011;59882;45.624;11.698;2023-12-20T03:02:34;56.15;;;36.10;;
66927;SDS011;59882;45.624;11.698;2023-12-20T03:05:00;54.08;;;36.50;;
66927;SDS011;59882;45.624;11.698;2023-12-20T03:07:25;52.97;;;35.83;;
66927;SDS011;59882;45.624;11.698;2023-12-20T03:09:51;57.87;;;36.20;;
66927;SDS011;59882;45.624;11.698;2023-12-20T03:12:17;56.42;;;35.78;;
66927;SDS011;59882;45.624;11.698;2023-12-20T03:14:43;55.90;;;34.77;;
66927;SDS011;59882;45.624;11.698;2023-12-20T03:17:09;55.65;;;34.92;;
66927;SDS011;59882;45.624;11.698;2023-12-20T03:19:35;55.13;;;35.10;;
66927;SDS011;59882;45.624;11.698;2023-12-20T03:22:00;51.75;;;34.30;;
66927;SDS011;59882;45.624;11.698;2023-12-20T03:24:26;58.37;;;35.63;;
66927;SDS011;59882;45.624;11.698;2023-12-20T03:26:52;50.58;;;33.58;;
66927;SDS011;59882;45.624;11.698;2023-12-20T03:29:18;55.08;;;34.47;;
66927;SDS011;59882;45.624;11.698;2023-12-20T03:31:44;55.73;;;34.00;;
66927;SDS011;59882;45.624;11.698;2023-12-20T03:34:10;54.38;;;34.42;;
66927;SDS011;59882;45.624;11.698;2023-12-20T03:36:36;53.65;;;34.65;;
66927;SDS011;59882;45.624;11.698;2023-12-20T03:39:02;47.43;;;33.33;;
66927;SDS011;59882;45.624;11.698;2023-12-20T03:41:28;53.05;;;32.58;;
66927;SDS011;59882;45.624;11.698;2023-12-20T03:43:53;53.47;;;32.87;;
66927;SDS011;59882;45.624;11.698;2023-12-20T03:46:19;51.47;;;32.78;;
66927;SDS011;59882;45.624;11.698;2023-12-20T03:48:44;55.77;;;33.37;;
66927;SDS011;59882;45.624;11.698;2023-12-20T03:51:10;56.70;;;33.70;;
66927;SDS011;59882;45.624;11.698;2023-12-20T03:53:36;52.60;;;32.53;;
66927;SDS011;59882;45.624;11.698;2023-12-20T03:56:01;51.83;;;31.87;;
66927;SDS011;59882;45.624;11.698;2023-12-20T03:58:27;53.25;;;32.88;;
66927;SDS011;59882;45.624;11.698;2023-12-20T04:00:53;51.35;;;32.08;;
66927;SDS011;59882;45.624;11.698;2023-12-20T04:03:19;49.30;;;31.43;;
66927;SDS011;59882;45.624;11.698;2023-12-20T04:05:44;46.80;;;30.23;;
66927;SDS011;59882;45.624;11.698;2023-12-20T04:08:10;48.42;;;31.00;;
66927;SDS011;59882;45.624;11.698;2023-12-20T04:10:36;49.58;;;30.80;;
66927;SDS011;59882;45.624;11.698;2023-12-20T04:13:02;48.05;;;30.77;;
66927;SDS011;59882;45.624;11.698;2023-12-20T04:15:28;49.07;;;29.90;;
66927;SDS011;59882;45.624;11.698;2023-12-20T04:17:54;49.53;;;31.83;;
66927;SDS011;59882;45.624;11.698;2023-12-20T04:20:19;47.37;;;30.30;;
66927;SDS011;59882;45.624;11.698;2023-12-20T04:22:45;50.03;;;29.70;;
66927;SDS011;59882;45.624;11.698;2023-12-20T04:25:11;48.83;;;29.75;;
66927;SDS011;59882;45.624;11.698;2023-12-20T04:27:36;42.30;;;28.10;;
66927;SDS011;59882;45.624;11.698;2023-12-20T04:30:02;45.08;;;29.52;;
66927;SDS011;59882;45.624;11.698;2023-12-20T04:32:28;43.97;;;28.23;;
66927;SDS011;59882;45.624;11.698;2023-12-20T04:34:54;50.77;;;29.97;;
66927;SDS011;59882;45.624;11.698;2023-12-20T04:37:19;45.83;;;28.93;;
66927;SDS011;59882;45.624;11.698;2023-12-20T04:39:45;41.28;;;26.55;;
66927;SDS011;59882;45.624;11.698;2023-12-20T04:42:11;46.77;;;29.13;;
66927;SDS011;59882;45.624;11.698;2023-12-20T04:44:36;41.70;;;29.17;;
66927;SDS011;59882;45.624;11.698;2023-12-20T04:47:02;41.80;;;27.60;;
66927;SDS011;59882;45.624;11.698;2023-12-20T04:49:28;42.90;;;27.05;;
66927;SDS011;59882;45.624;11.698;2023-12-20T04:51:54;45.83;;;29.20;;
66927;SDS011;59882;45.624;11.698;2023-12-20T04:54:20;41.60;;;27.40;;
66927;SDS011;59882;45.624;11.698;2023-12-20T04:56:46;46.67;;;28.70;;
66927;SDS011;59882;45.624;11.698;2023-12-20T04:59:12;43.23;;;28.40;;
66927;SDS011;59882;45.624;11.698;2023-12-20T05:01:38;52.05;;;30.88;;
66927;SDS011;59882;45.624;11.698;2023-12-20T05:04:04;43.58;;;28.27;;
66927;SDS011;59882;45.624;11.698;2023-12-20T05:06:29;45.23;;;28.47;;
66927;SDS011;59882;45.624;11.698;2023-12-20T05:08:55;45.37;;;27.57;;
66927;SDS011;59882;45.624;11.698;2023-12-20T05:11:21;46.25;;;27.48;;
66927;SDS011;59882;45.624;11.698;2023-12-20T05:13:46;48.13;;;27.50;;
66927;SDS011;59882;45.624;11.698;2023-12-20T05:16:12;53.60;;;29.52;;
66927;SDS011;59882;45.624;11.698;2023-12-20T05:18:39;51.83;;;29.63;;
66927;SDS011;59882;45.624;11.698;2023-12-20T05:21:05;46.73;;;28.77;;
66927;SDS011;59882;45.624;11.698;2023-12-20T05:23:30;45.10;;;26.15;;
66927;SDS011;59882;45.624;11.698;2023-12-20T05:25:56;48.30;;;27.73;;
66927;SDS011;59882;45.624;11.698;2023-12-20T05:28:21;42.30;;;27.27;;
66927;SDS011;59882;45.624;11.698;2023-12-20T05:30:47;44.88;;;27.70;;
66927;SDS011;59882;45.624;11.698;2023-12-20T05:33:13;45.87;;;26.50;;
66927;SDS011;59882;45.624;11.698;2023-12-20T05:35:38;48.92;;;27.42;;
66927;SDS011;59882;45.624;11.698;2023-12-20T05:38:04;45.03;;;27.90;;
66927;SDS011;59882;45.624;11.698;2023-12-20T05:40:30;49.37;;;28.60;;
66927;SDS011;59882;45.624;11.698;2023-12-20T05:42:55;47.17;;;27.23;;
66927;SDS011;59882;45.624;11.698;2023-12-20T05:45:21;53.93;;;31.30;;
66927;SDS011;59882;45.624;11.698;2023-12-20T05:47:46;52.08;;;31.10;;
66927;SDS011;59882;45.624;11.698;2023-12-20T05:50:12;46.10;;;26.20;;
66927;SDS011;59882;45.624;11.698;2023-12-20T05:52:37;50.43;;;27.90;;
66927;SDS011;59882;45.624;11.698;2023-12-20T05:55:03;49.42;;;29.13;;
66927;SDS011;59882;45.624;11.698;2023-12-20T05:57:29;56.90;;;32.20;;
66927;SDS011;59882;45.624;11.698;2023-12-20T05:59:54;50.17;;;28.77;;
66927;SDS011;59882;45.624;11.698;2023-12-20T06:02:20;46.63;;;26.97;;
66927;SDS011;59882;45.624;11.698;2023-12-20T06:04:46;44.30;;;27.27;;
66927;SDS011;59882;45.624;11.698;2023-12-20T06:07:12;54.30;;;29.13;;
66927;SDS011;59882;45.624;11.698;2023-12-20T06:09:38;45.83;;;29.02;;
66927;SDS011;59882;45.624;11.698;2023-12-20T06:12:04;52.50;;;30.07;;
66927;SDS011;59882;45.624;11.698;2023-12-20T06:14:30;52.97;;;30.70;;
66927;SDS011;59882;45.624;11.698;2023-12-20T06:16:56;49.35;;;30.67;;
66927;SDS011;59882;45.624;11.698;2023-12-20T06:19:22;50.97;;;30.43;;
66927;SDS011;59882;45.624;11.698;2023-12-20T06:21:48;54.85;;;30.17;;
66927;SDS011;59882;45.624;11.698;2023-12-20T06:24:13;52.97;;;31.03;;
66927;SDS011;59882;45.624;11.698;2023-12-20T06:26:39;49.25;;;29.52;;
66927;SDS011;59882;45.624;11.698;2023-12-20T06:29:05;52.43;;;29.67;;
66927;SDS011;59882;45.624;11.698;2023-12-20T06:31:30;55.75;;;30.77;;
66927;SDS011;59882;45.624;11.698;2023-12-20T06:33:58;54.20;;;30.55;;
66927;SDS011;59882;45.624;11.698;2023-12-20T06:36:25;55.70;;;29.07;;
66927;SDS011;59882;45.624;11.698;2023-12-20T06:38:51;48.30;;;28.33;;
66927;SDS011;59882;45.624;11.698;2023-12-20T06:41:17;42.97;;;26.58;;
66927;SDS011;59882;45.624;11.698;2023-12-20T06:43:42;44.10;;;26.83;;
66927;SDS011;59882;45.624;11.698;2023-12-20T06:46:08;42.80;;;25.42;;
66927;SDS011;59882;45.624;11.698;2023-12-20T06:48:34;35.90;;;23.43;;
66927;SDS011;59882;45.624;11.698;2023-12-20T06:51:00;40.53;;;25.37;;
66927;SDS011;59882;45.624;11.698;2023-12-20T06:53:29;46.20;;;27.98;;
66927;SDS011;59882;45.624;11.698;2023-12-20T06:55:55;50.92;;;31.45;;
66927;SDS011;59882;45.624;11.698;2023-12-20T06:58:22;56.10;;;30.35;;
66927;SDS011;59882;45.624;11.698;2023-12-20T07:00:48;57.13;;;31.47;;
66927;SDS011;59882;45.624;11.698;2023-12-20T07:03:13;55.72;;;30.52;;
66927;SDS011;59882;45.624;11.698;2023-12-20T07:05:39;50.57;;;28.93;;
66927;SDS011;59882;45.624;11.698;2023-12-20T07:08:06;50.30;;;29.20;;
66927;SDS011;59882;45.624;11.698;2023-12-20T07:10:31;51.42;;;29.10;;
66927;SDS011;59882;45.624;11.698;2023-12-20T07:12:57;63.13;;;33.80;;
66927;SDS011;59882;45.624;11.698;2023-12-20T07:15:23;64.72;;;33.05;;
66927;SDS011;59882;45.624;11.698;2023-12-20T07:17:49;58.97;;;32.40;;
66927;SDS011;59882;45.624;11.698;2023-12-20T07:20:14;59.95;;;32.72;;
66927;SDS011;59882;45.624;11.698;2023-12-20T07:22:40;59.70;;;32.30;;
66927;SDS011;59882;45.624;11.698;2023-12-20T07:25:06;57.75;;;34.13;;
66927;SDS011;59882;45.624;11.698;2023-12-20T07:27:32;59.05;;;35.90;;
66927;SDS011;59882;45.624;11.698;2023-12-20T07:29:58;61.63;;;37.33;;
66927;SDS011;59882;45.624;11.698;2023-12-20T07:32:24;58.85;;;36.53;;
66927;SDS011;59882;45.624;11.698;2023-12-20T07:34:49;73.60;;;39.27;;
66927;SDS011;59882;45.624;11.698;2023-12-20T07:37:15;89.38;;;43.78;;
66927;SDS011;59882;45.624;11.698;2023-12-20T07:39:41;51.17;;;29.17;;
66927;SDS011;59882;45.624;11.698;2023-12-20T07:42:07;56.25;;;33.58;;
66927;SDS011;59882;45.624;11.698;2023-12-20T07:44:34;79.18;;;43.92;;
66927;SDS011;59882;45.624;11.698;2023-12-20T07:47:02;76.57;;;42.35;;
66927;SDS011;59882;45.624;11.698;2023-12-20T07:49:29;65.43;;;36.77;;
66927;SDS011;59882;45.624;11.698;2023-12-20T07:51:55;65.45;;;37.30;;
66927;SDS011;59882;45.624;11.698;2023-12-20T07:54:21;62.03;;;36.33;;
66927;SDS011;59882;45.624;11.698;2023-12-20T07:56:46;50.17;;;31.23;;
66927;SDS011;59882;45.624;11.698;2023-12-20T07:59:12;46.57;;;27.03;;
66927;SDS011;59882;45.624;11.698;2023-12-20T08:01:38;42.33;;;26.17;;
66927;SDS011;59882;45.624;11.698;2023-12-20T08:04:03;44.03;;;25.23;;
66927;SDS011;59882;45.624;11.698;2023-12-20T08:06:29;38.05;;;22.00;;
66927;SDS011;59882;45.624;11.698;2023-12-20T08:08:54;34.13;;;19.90;;
66927;SDS011;59882;45.624;11.698;2023-12-20T08:11:20;36.70;;;21.43;;
66927;SDS011;59882;45.624;11.698;2023-12-20T08:13:46;36.08;;;19.90;;
66927;SDS011;59882;45.624;11.698;2023-12-20T08:16:11;34.67;;;19.97;;
66927;SDS011;59882;45.624;11.698;2023-12-20T08:18:38;33.03;;;20.13;;
66927;SDS011;59882;45.624;11.698;2023-12-20T08:21:04;37.88;;;20.08;;
66927;SDS011;59882;45.624;11.698;2023-12-20T08:23:32;35.38;;;20.10;;
66927;SDS011;59882;45.624;11.698;2023-12-20T08:25:58;35.83;;;19.90;;
66927;SDS011;59882;45.624;11.698;2023-12-20T08:28:23;33.13;;;21.48;;
66927;SDS011;59882;45.624;11.698;2023-12-20T08:30:49;40.57;;;23.20;;
66927;SDS011;59882;45.624;11.698;2023-12-20T08:33:18;40.20;;;23.83;;
66927;SDS011;59882;45.624;11.698;2023-12-20T08:35:44;46.27;;;26.83;;
66927;SDS011;59882;45.624;11.698;2023-12-20T08:38:09;43.97;;;25.33;;
66927;SDS011;59882;45.624;11.698;2023-12-20T08:40:35;44.17;;;25.80;;
66927;SDS011;59882;45.624;11.698;2023-12-20T08:43:01;48.93;;;28.30;;
66927;SDS011;59882;45.624;11.698;2023-12-20T08:45:26;47.10;;;26.13;;
66927;SDS011;59882;45.624;11.698;2023-12-20T08:47:52;47.43;;;26.00;;
66927;SDS011;59882;45.624;11.698;2023-12-20T08:50:17;51.28;;;26.67;;
66927;SDS011;59882;45.624;11.698;2023-12-20T08:52:43;47.43;;;27.90;;
66927;SDS011;59882;45.624;11.698;2023-12-20T08:55:09;55.53;;;29.93;;
66927;SDS011;59882;45.624;11.698;2023-12-20T08:57:38;62.67;;;32.20;;
66927;SDS011;59882;45.624;11.698;2023-12-20T09:00:03;104.90;;;47.05;;
66927;SDS011;59882;45.624;11.698;2023-12-20T09:02:31;89.30;;;40.60;;
66927;SDS011;59882;45.624;11.698;2023-12-20T09:04:58;83.40;;;41.85;;
66927;SDS011;59882;45.624;11.698;2023-12-20T09:07:24;78.57;;;39.38;;
66927;SDS011;59882;45.624;11.698;2023-12-20T09:09:51;100.07;;;48.40;;
66927;SDS011;59882;45.624;11.698;2023-12-20T09:12:19;79.13;;;42.10;;
66927;SDS011;59882;45.624;11.698;2023-12-20T09:14:49;55.83;;;33.08;;
66927;SDS011;59882;45.624;11.698;2023-12-20T09:17:16;52.03;;;33.22;;
66927;SDS011;59882;45.624;11.698;2023-12-20T09:19:42;54.78;;;31.65;;
66927;SDS011;59882;45.624;11.698;2023-12-20T09:22:11;47.70;;;29.27;;
66927;SDS011;59882;45.624;11.698;2023-12-20T09:24:37;46.47;;;29.08;;
66927;SDS011;59882;45.624;11.698;2023-12-20T09:27:05;48.42;;;27.90;;
66927;SDS011;59882;45.624;11.698;2023-12-20T09:29:32;45.13;;;27.45;;
66927;SDS011;59882;45.624;11.698;2023-12-20T09:31:58;49.73;;;24.90;;
66927;SDS011;59882;45.624;11.698;2023-12-20T09:34:24;41.87;;;24.87;;
66927;SDS011;59882;45.624;11.698;2023-12-20T09:36:50;44.40;;;25.92;;
66927;SDS011;59882;45.624;11.698;2023-12-20T09:39:17;51.10;;;26.50;;
66927;SDS011;59882;45.624;11.698;2023-12-20T09:42:03;44.15;;;22.92;;
66927;SDS011;59882;45.624;11.698;2023-12-20T09:44:30;36.28;;;24.98;;
66927;SDS011;59882;45.624;11.698;2023-12-20T09:46:58;40.03;;;23.17;;
66927;SDS011;59882;45.624;11.698;2023-12-20T09:49:25;35.08;;;23.00;;
66927;SDS011;59882;45.624;11.698;2023-12-20T09:51:53;35.25;;;23.25;;
66927;SDS011;59882;45.624;11.698;2023-12-20T09:54:20;34.30;;;22.98;;
66927;SDS011;59882;45.624;11.698;2023-12-20T09:56:46;40.78;;;24.58;;
66927;SDS011;59882;45.624;11.698;2023-12-20T09:59:12;37.97;;;24.50;;
66927;SDS011;59882;45.624;11.698;2023-12-20T10:01:39;40.83;;;24.52;;
66927;SDS011;59882;45.624;11.698;2023-12-20T10:04:06;45.90;;;26.25;;
66927;SDS011;59882;45.624;11.698;2023-12-20T10:06:36;43.63;;;25.63;;
66927;SDS011;59882;45.624;11.698;2023-12-20T10:09:03;38.50;;;25.48;;
66927;SDS011;59882;45.624;11.698;2023-12-20T10:11:29;43.53;;;27.33;;
66927;SDS011;59882;45.624;11.698;2023-12-20T10:14:01;57.47;;;28.27;;
66927;SDS011;59882;45.624;11.698;2023-12-20T10:16:26;40.00;;;24.58;;
66927;SDS011;59882;45.624;11.698;2023-12-20T10:18:53;47.95;;;27.20;;
66927;SDS011;59882;45.624;11.698;2023-12-20T10:21:20;42.73;;;24.97;;
66927;SDS011;59882;45.624;11.698;2023-12-20T10:23:46;44.58;;;24.27;;
66927;SDS011;59882;45.624;11.698;2023-12-20T10:29:06;38.90;;;25.17;;
66927;SDS011;59882;45.624;11.698;2023-12-20T10:31:33;48.35;;;30.13;;
66927;SDS011;59882;45.624;11.698;2023-12-20T10:34:00;31.63;;;23.20;;
66927;SDS011;59882;45.624;11.698;2023-12-20T10:36:27;42.05;;;26.05;;
66927;SDS011;59882;45.624;11.698;2023-12-20T10:38:54;36.28;;;24.70;;
66927;SDS011;59882;45.624;11.698;2023-12-20T10:41:32;43.70;;;26.80;;
66927;SDS011;59882;45.624;11.698;2023-12-20T10:43:59;40.47;;;25.05;;
66927;SDS011;59882;45.624;11.698;2023-12-20T10:46:27;33.50;;;24.27;;
66927;SDS011;59882;45.624;11.698;2023-12-20T10:48:57;46.47;;;24.27;;
66927;SDS011;59882;45.624;11.698;2023-12-20T10:51:23;43.43;;;25.30;;
66927;SDS011;59882;45.624;11.698;2023-12-20T10:53:51;35.42;;;23.77;;
66927;SDS011;59882;45.624;11.698;2023-12-20T10:56:18;37.92;;;25.40;;
66927;SDS011;59882;45.624;11.698;2023-12-20T10:58:45;36.28;;;23.70;;
66927;SDS011;59882;45.624;11.698;2023-12-20T11:01:12;33.05;;;22.63;;
66927;SDS011;59882;45.624;11.698;2023-12-20T11:03:41;33.13;;;22.77;;
66927;SDS011;59882;45.624;11.698;2023-12-20T11:06:14;31.92;;;21.98;;
66927;SDS011;59882;45.624;11.698;2023-12-20T11:11:38;32.80;;;22.35;;
66927;SDS011;59882;45.624;11.698;2023-12-20T11:14:11;42.55;;;24.33;;
66927;SDS011;59882;45.624;11.698;2023-12-20T11:16:42;41.53;;;24.37;;
66927;SDS011;59882;45.624;11.698;2023-12-20T11:19:07;43.30;;;26.42;;
66927;SDS011;59882;45.624;11.698;2023-12-20T11:21:33;44.20;;;27.83;;
66927;SDS011;59882;45.624;11.698;2023-12-20T11:23:59;46.30;;;28.58;;
66927;SDS011;59882;45.624;11.698;2023-12-20T11:26:28;46.42;;;26.42;;
66927;SDS011;59882;45.624;11.698;2023-12-20T11:29:12;40.83;;;28.03;;
66927;SDS011;59882;45.624;11.698;2023-12-20T11:32:27;44.10;;;26.75;;
66927;SDS011;59882;45.624;11.698;2023-12-20T11:34:50;40.65;;;27.83;;
66927;SDS011;59882;45.624;11.698;2023-12-20T11:37:16;45.47;;;28.23;;
66927;SDS011;59882;45.624;11.698;2023-12-20T11:39:44;49.78;;;31.70;;
66927;SDS011;59882;45.624;11.698;2023-12-20T11:42:10;49.40;;;32.40;;
66927;SDS011;59882;45.624;11.698;2023-12-20T11:44:36;54.92;;;34.13;;
66927;SDS011;59882;45.624;11.698;2023-12-20T11:47:02;55.28;;;34.25;;
66927;SDS011;59882;45.624;11.698;2023-12-20T11:49:28;51.17;;;30.23;;
66927;SDS011;59882;45.624;11.698;2023-12-20T11:51:55;48.28;;;32.17;;
66927;SDS011;59882;45.624;11.698;2023-12-20T11:54:21;44.40;;;29.90;;
66927;SDS011;59882;45.624;11.698;2023-12-20T11:56:47;47.83;;;32.05;;
66927;SDS011;59882;45.624;11.698;2023-12-20T11:59:13;54.97;;;36.13;;
66927;SDS011;59882;45.624;11.698;2023-12-20T12:01:40;54.25;;;35.78;;
66927;SDS011;59882;45.624;11.698;2023-12-20T12:04:12;49.83;;;32.25;;
66927;SDS011;59882;45.624;11.698;2023-12-20T12:06:39;47.53;;;32.30;;
66927;SDS011;59882;45.624;11.698;2023-12-20T12:09:04;50.97;;;31.57;;
66927;SDS011;59882;45.624;11.698;2023-12-20T12:11:30;48.70;;;32.30;;
66927;SDS011;59882;45.624;11.698;2023-12-20T12:13:56;46.50;;;31.38;;
66927;SDS011;59882;45.624;11.698;2023-12-20T12:16:22;44.42;;;29.35;;
66927;SDS011;59882;45.624;11.698;2023-12-20T12:18:55;54.80;;;31.40;;
66927;SDS011;59882;45.624;11.698;2023-12-20T12:21:24;54.65;;;32.08;;
66927;SDS011;59882;45.624;11.698;2023-12-20T12:23:50;51.33;;;30.48;;
66927;SDS011;59882;45.624;11.698;2023-12-20T12:26:15;52.20;;;30.53;;
66927;SDS011;59882;45.624;11.698;2023-12-20T12:28:41;48.72;;;30.88;;
66927;SDS011;59882;45.624;11.698;2023-12-20T12:31:08;47.85;;;31.10;;
66927;SDS011;59882;45.624;11.698;2023-12-20T12:33:38;46.07;;;29.27;;
66927;SDS011;59882;45.624;11.698;2023-12-20T12:36:06;50.40;;;30.63;;
66927;SDS011;59882;45.624;11.698;2023-12-20T12:38:32;51.50;;;31.98;;
66927;SDS011;59882;45.624;11.698;2023-12-20T12:40:59;49.22;;;30.92;;
66927;SDS011;59882;45.624;11.698;2023-12-20T12:43:25;47.08;;;31.13;;
66927;SDS011;59882;45.624;11.698;2023-12-20T12:45:51;55.57;;;36.63;;
66927;SDS011;59882;45.624;11.698;2023-12-20T12:48:17;58.67;;;36.47;;
66927;SDS011;59882;45.624;11.698;2023-12-20T12:50:42;59.78;;;37.17;;
66927;SDS011;59882;45.624;11.698;2023-12-20T12:53:08;59.57;;;35.87;;
66927;SDS011;59882;45.624;11.698;2023-12-20T12:55:34;58.97;;;36.90;;
66927;SDS011;59882;45.624;11.698;2023-12-20T12:58:01;60.43;;;36.83;;
66927;SDS011;59882;45.624;11.698;2023-12-20T13:00:27;58.75;;;37.45;;
66927;SDS011;59882;45.624;11.698;2023-12-20T13:02:52;54.33;;;35.92;;
66927;SDS011;59882;45.624;11.698;2023-12-20T13:05:18;60.23;;;36.67;;
66927;SDS011;59882;45.624;11.698;2023-12-20T13:07:44;53.37;;;35.33;;
66927;SDS011;59882;45.624;11.698;2023-12-20T13:10:10;54.80;;;36.60;;
66927;SDS011;59882;45.624;11.698;2023-12-20T13:12:36;67.20;;;39.97;;
66927;SDS011;59882;45.624;11.698;2023-12-20T13:15:02;81.50;;;46.10;;
66927;SDS011;59882;45.624;11.698;2023-12-20T13:17:31;69.10;;;42.22;;
66927;SDS011;59882;45.624;11.698;2023-12-20T13:19:56;74.75;;;46.17;;
66927;SDS011;59882;45.624;11.698;2023-12-20T13:22:22;62.20;;;42.33;;
66927;SDS011;59882;45.624;11.698;2023-12-20T13:24:48;65.87;;;41.37;;
66927;SDS011;59882;45.624;11.698;2023-12-20T13:27:13;74.72;;;46.65;;
66927;SDS011;59882;45.624;11.698;2023-12-20T13:29:39;78.53;;;46.43;;
66927;SDS011;59882;45.624;11.698;2023-12-20T13:32:05;65.47;;;44.28;;
66927;SDS011;59882;45.624;11.698;2023-12-20T13:34:31;70.15;;;44.70;;
66927;SDS011;59882;45.624;11.698;2023-12-20T13:36:56;65.23;;;42.03;;
66927;SDS011;59882;45.624;11.698;2023-12-20T13:39:22;50.95;;;37.08;;
66927;SDS011;59882;45.624;11.698;2023-12-20T13:41:48;55.07;;;36.30;;
66927;SDS011;59882;45.624;11.698;2023-12-20T13:44:13;50.17;;;34.03;;
66927;SDS011;59882;45.624;11.698;2023-12-20T13:46:42;49.92;;;34.85;;
66927;SDS011;59882;45.624;11.698;2023-12-20T13:49:08;60.55;;;37.45;;
66927;SDS011;59882;45.624;11.698;2023-12-20T13:51:33;47.40;;;34.40;;
66927;SDS011;59882;45.624;11.698;2023-12-20T13:53:59;54.55;;;38.58;;
66927;SDS011;59882;45.624;11.698;2023-12-20T13:56:25;55.23;;;35.83;;
66927;SDS011;59882;45.624;11.698;2023-12-20T13:58:51;51.92;;;35.53;;
66927;SDS011;59882;45.624;11.698;2023-12-20T14:01:16;59.47;;;37.53;;
66927;SDS011;59882;45.624;11.698;2023-12-20T14:03:42;48.83;;;32.88;;
66927;SDS011;59882;45.624;11.698;2023-12-20T14:06:08;52.07;;;33.90;;
66927;SDS011;59882;45.624;11.698;2023-12-20T14:08:34;54.83;;;35.22;;
66927;SDS011;59882;45.624;11.698;2023-12-20T14:11:00;47.40;;;33.08;;
66927;SDS011;59882;45.624;11.698;2023-12-20T14:13:26;46.00;;;32.63;;